Time;durP1;ratioP1;P1;durP2;ratioP2;P2;SDS_P1;SDS_P2;PMS_P1;PMS_P2;Temp;Humidity;BMP_temperature;BMP_pressure;BME280_temperature;BME280_humidity;BME280_pressure;Samples;Min_cycle;Max_cycle;Signal;HPM_P1;HPM_P2
2024/02/04 00:00:44;;;;;;;1.50;1.40;;;;;;;;;;5034235;28;20029;-61
2024/02/04 00:03:10;;;;;;;2.15;1.50;;;;;;;;;;5034127;28;20531;-61
2024/02/04 00:05:35;;;;;;;1.80;1.45;;;;;;;;;;5034090;28;20040;-61
2024/02/04 00:08:02;;;;;;;1.98;1.83;;;;;;;;;;5032823;28;20022;-61
2024/02/04 00:10:27;;;;;;;1.85;1.75;;;;;;;;;;5034319;28;20041;-61
2024/02/04 00:12:53;;;;;;;1.65;1.55;;;;;;;;;;5034216;28;20030;-61
2024/02/04 00:15:19;;;;;;;2.50;1.63;;;;;;;;;;5034522;28;20469;-61
2024/02/04 00:17:44;;;;;;;2.28;1.83;;;;;;;;;;5033963;28;20033;-61
2024/02/04 00:20:10;;;;;;;2.15;1.95;;;;;;;;;;5034141;28;20033;-61
2024/02/04 00:22:35;;;;;;;4.80;2.30;;;;;;;;;;5033951;28;20049;-61
2024/02/04 00:25:11;;;;;;;2.85;2.53;;;;;;;;;;5034035;28;20033;-61
2024/02/04 00:27:36;;;;;;;3.10;2.80;;;;;;;;;;5034328;28;20046;-61
2024/02/04 00:30:02;;;;;;;3.90;3.05;;;;;;;;;;5034297;28;20092;-61
2024/02/04 00:32:27;;;;;;;3.05;2.75;;;;;;;;;;5032377;28;20109;-61
2024/02/04 00:34:53;;;;;;;3.22;2.00;;;;;;;;;;5049053;28;20374;-60
2024/02/04 00:37:19;;;;;;;3.67;2.83;;;;;;;;;;5033665;28;20424;-60
2024/02/04 00:39:44;;;;;;;2.97;2.35;;;;;;;;;;5033925;28;20022;-60
2024/02/04 00:42:10;;;;;;;2.47;2.28;;;;;;;;;;5034139;28;20034;-61
2024/02/04 00:44:35;;;;;;;2.28;2.08;;;;;;;;;;5033608;28;20033;-60
2024/02/04 00:47:01;;;;;;;2.95;2.03;;;;;;;;;;5015886;28;20091;-60
2024/02/04 00:49:27;;;;;;;2.50;2.30;;;;;;;;;;5033825;28;20037;-61
2024/02/04 00:51:52;;;;;;;2.00;1.90;;;;;;;;;;5032194;28;20054;-60
2024/02/04 00:54:17;;;;;;;2.03;1.92;;;;;;;;;;5033486;28;20053;-61
2024/02/04 00:56:43;;;;;;;2.00;1.85;;;;;;;;;;5033719;28;20060;-62
2024/02/04 00:59:08;;;;;;;1.80;1.70;;;;;;;;;;5033391;28;20075;-62
2024/02/04 01:01:34;;;;;;;1.75;1.65;;;;;;;;;;5033452;28;20470;-61
2024/02/04 01:03:59;;;;;;;2.22;1.75;;;;;;;;;;5048875;28;20469;-61
2024/02/04 01:06:25;;;;;;;1.90;1.70;;;;;;;;;;5037961;28;20039;-61
2024/02/04 01:08:51;;;;;;;2.05;1.85;;;;;;;;;;5037682;28;20033;-60
2024/02/04 01:11:16;;;;;;;3.78;2.00;;;;;;;;;;5037877;28;20079;-61
2024/02/04 01:13:41;;;;;;;1.63;1.52;;;;;;;;;;5037180;28;20432;-60
2024/02/04 01:16:07;;;;;;;1.60;1.50;;;;;;;;;;5019529;28;20029;-61
2024/02/04 01:18:33;;;;;;;2.55;1.65;;;;;;;;;;5037508;28;20018;-62
2024/02/04 01:21:00;;;;;;;3.17;1.90;;;;;;;;;;5035950;28;20032;-61
2024/02/04 01:23:25;;;;;;;2.63;1.90;;;;;;;;;;5037027;28;20052;-60
2024/02/04 01:25:51;;;;;;;3.22;2.00;;;;;;;;;;5052468;28;20116;-61
2024/02/04 01:28:16;;;;;;;3.30;2.08;;;;;;;;;;5037031;28;20033;-61
2024/02/04 01:30:41;;;;;;;2.15;1.75;;;;;;;;;;5036967;28;20033;-60
2024/02/04 01:33:07;;;;;;;2.00;1.80;;;;;;;;;;5037189;28;20033;-60
2024/02/04 01:35:32;;;;;;;1.95;1.77;;;;;;;;;;5036971;28;20591;-61
2024/02/04 01:37:58;;;;;;;1.83;1.73;;;;;;;;;;5037467;28;20036;-61
2024/02/04 01:40:23;;;;;;;1.90;1.80;;;;;;;;;;5037388;28;20037;-61
2024/02/04 01:42:49;;;;;;;1.90;1.80;;;;;;;;;;5037062;28;20084;-61
2024/02/04 01:45:43;;;;;;;2.20;1.98;;;;;;;;;;5042228;23;20492;-52
2024/02/04 01:48:09;;;;;;;1.88;1.77;;;;;;;;;;5054843;23;20107;-52
2024/02/04 01:50:34;;;;;;;1.90;1.80;;;;;;;;;;5061323;23;20424;-51
2024/02/04 01:53:01;;;;;;;2.17;1.75;;;;;;;;;;5077830;23;20061;-60
2024/02/04 01:55:26;;;;;;;1.70;1.60;;;;;;;;;;5014274;28;20125;-61
2024/02/04 01:57:51;;;;;;;1.92;1.83;;;;;;;;;;5032820;28;20108;-61
2024/02/04 02:00:18;;;;;;;2.05;1.73;;;;;;;;;;5031946;28;20088;-61
2024/02/04 02:02:45;;;;;;;2.67;1.90;;;;;;;;;;5016661;28;20433;-61
2024/02/04 02:05:11;;;;;;;1.70;1.60;;;;;;;;;;5016610;28;20088;-60
2024/02/04 02:07:36;;;;;;;1.73;1.63;;;;;;;;;;5016859;28;20022;-61
2024/02/04 02:10:01;;;;;;;2.05;1.90;;;;;;;;;;5016788;28;20030;-61
2024/02/04 02:12:29;;;;;;;1.90;1.80;;;;;;;;;;5031702;28;20490;-60
2024/02/04 02:15:09;;;;;;;2.55;2.30;;;;;;;;;;5031672;28;20033;-61
2024/02/04 02:17:48;;;;;;;2.63;1.80;;;;;;;;;;5030800;28;20363;-61
2024/02/04 02:20:21;;;;;;;1.92;1.80;;;;;;;;;;5016605;28;20033;-61
2024/02/04 02:22:53;;;;;;;1.88;1.77;;;;;;;;;;5016575;28;20037;-60
2024/02/04 02:25:19;;;;;;;1.80;1.70;;;;;;;;;;5016223;28;20113;-61
2024/02/04 02:27:49;;;;;;;1.33;1.23;;;;;;;;;;5016452;28;20037;-61
2024/02/04 02:30:15;;;;;;;0.95;0.90;;;;;;;;;;5014855;28;20033;-61
2024/02/04 02:32:41;;;;;;;0.70;0.70;;;;;;;;;;5016267;28;20052;-61
2024/02/04 02:35:06;;;;;;;1.42;0.80;;;;;;;;;;5016029;28;20025;-60
2024/02/04 02:37:40;;;;;;;1.23;0.90;;;;;;;;;;5031193;28;20172;-60
2024/02/04 02:40:23;;;;;;;0.95;0.95;;;;;;;;;;5014684;28;20462;-60
2024/02/04 02:42:49;;;;;;;0.90;0.77;;;;;;;;;;5016166;28;20033;-60
2024/02/04 02:45:15;;;;;;;0.75;0.75;;;;;;;;;;5014674;28;20041;-61
2024/02/04 02:47:41;;;;;;;1.85;1.00;;;;;;;;;;5015805;28;20029;-61
2024/02/04 02:50:07;;;;;;;2.03;0.88;;;;;;;;;;5016295;28;20117;-61
2024/02/04 02:52:32;;;;;;;2.20;1.02;;;;;;;;;;5015894;28;20026;-61
2024/02/04 02:54:58;;;;;;;0.80;0.80;;;;;;;;;;5046850;28;20041;-58
2024/02/04 02:57:23;;;;;;;0.98;0.73;;;;;;;;;;5035652;28;20018;-61
2024/02/04 02:59:48;;;;;;;1.08;0.80;;;;;;;;;;5035948;28;20037;-61
2024/02/04 03:02:14;;;;;;;0.70;0.70;;;;;;;;;;5035848;28;20048;-61
2024/02/04 03:04:39;;;;;;;0.70;0.70;;;;;;;;;;5034819;28;20108;-61
2024/02/04 03:07:06;;;;;;;1.45;0.85;;;;;;;;;;5035469;28;20041;-61
2024/02/04 03:09:32;;;;;;;1.08;0.80;;;;;;;;;;5033895;28;20029;-60
2024/02/04 03:11:57;;;;;;;1.48;0.70;;;;;;;;;;5033795;28;20045;-60
2024/02/04 03:14:22;;;;;;;0.82;0.82;;;;;;;;;;5035638;28;20040;-60
2024/02/04 03:16:48;;;;;;;0.95;0.85;;;;;;;;;;5050359;28;20093;-61
2024/02/04 03:19:13;;;;;;;0.60;0.60;;;;;;;;;;5050306;28;20018;-61
2024/02/04 03:21:39;;;;;;;1.67;0.70;;;;;;;;;;5051430;28;20044;-60
2024/02/04 03:24:04;;;;;;;0.77;0.77;;;;;;;;;;5017165;28;20033;-61
2024/02/04 03:26:30;;;;;;;0.80;0.80;;;;;;;;;;5034852;28;20057;-61
2024/02/04 03:28:55;;;;;;;0.60;0.60;;;;;;;;;;5050096;28;20030;-61
2024/02/04 03:31:21;;;;;;;0.68;0.68;;;;;;;;;;5050084;28;20025;-60
2024/02/04 03:33:47;;;;;;;0.55;0.55;;;;;;;;;;5033412;28;20053;-61
2024/02/04 03:36:14;;;;;;;0.65;0.52;;;;;;;;;;5034945;28;20117;-61
2024/02/04 03:38:39;;;;;;;0.63;0.63;;;;;;;;;;5050002;28;20404;-62
2024/02/04 03:41:05;;;;;;;0.95;0.70;;;;;;;;;;5050603;28;20036;-61
2024/02/04 03:43:31;;;;;;;1.70;0.80;;;;;;;;;;5034456;28;20366;-61
2024/02/04 03:45:57;;;;;;;0.73;0.73;;;;;;;;;;5049823;28;20041;-61
2024/02/04 03:48:22;;;;;;;0.68;0.65;;;;;;;;;;5034386;28;20104;-61
2024/02/04 03:50:47;;;;;;;0.70;0.70;;;;;;;;;;5033106;28;20060;-61
2024/02/04 03:53:13;;;;;;;0.60;0.60;;;;;;;;;;5032877;28;20029;-61
2024/02/04 03:55:38;;;;;;;2.00;0.70;;;;;;;;;;5033013;28;20461;-61
2024/02/04 03:58:04;;;;;;;0.70;0.50;;;;;;;;;;5049591;28;20480;-61
2024/02/04 04:00:29;;;;;;;0.60;0.50;;;;;;;;;;5034204;28;20056;-61
2024/02/04 04:02:54;;;;;;;0.63;0.63;;;;;;;;;;5034701;28;20124;-61
2024/02/04 04:05:20;;;;;;;0.65;0.55;;;;;;;;;;5034709;28;20112;-61
2024/02/04 04:07:45;;;;;;;0.60;0.60;;;;;;;;;;5034658;28;20040;-61
2024/02/04 04:10:10;;;;;;;1.10;0.55;;;;;;;;;;5034069;28;20029;-61
2024/02/04 04:12:36;;;;;;;1.40;0.70;;;;;;;;;;5034016;28;20485;-61
2024/02/04 04:15:01;;;;;;;0.55;0.50;;;;;;;;;;5034017;28;20433;-61
2024/02/04 04:17:26;;;;;;;0.77;0.60;;;;;;;;;;5033823;28;20479;-61
2024/02/04 04:19:52;;;;;;;0.70;0.50;;;;;;;;;;5034721;28;20060;-62
2024/02/04 04:22:17;;;;;;;2.58;0.70;;;;;;;;;;5032673;28;20033;-61
2024/02/04 04:24:42;;;;;;;1.40;0.77;;;;;;;;;;5034369;28;20032;-61
2024/02/04 04:27:09;;;;;;;1.33;0.50;;;;;;;;;;5033818;28;20476;-61
2024/02/04 04:29:34;;;;;;;1.25;0.70;;;;;;;;;;5033741;28;20508;-61
2024/02/04 04:31:59;;;;;;;0.63;0.63;;;;;;;;;;5033685;28;20030;-61
2024/02/04 04:34:25;;;;;;;1.00;0.68;;;;;;;;;;5034290;28;20037;-62
2024/02/04 04:36:50;;;;;;;0.70;0.60;;;;;;;;;;5032459;28;20055;-61
2024/02/04 04:39:15;;;;;;;0.82;0.70;;;;;;;;;;5033217;28;20457;-61
2024/02/04 04:41:42;;;;;;;1.58;0.50;;;;;;;;;;5033591;28;20096;-61
2024/02/04 04:44:07;;;;;;;1.05;0.50;;;;;;;;;;5033625;28;20034;-61
2024/02/04 04:46:32;;;;;;;0.60;0.60;;;;;;;;;;5033603;28;20044;-62
2024/02/04 04:48:58;;;;;;;1.38;0.63;;;;;;;;;;5034096;28;20044;-61
2024/02/04 04:51:23;;;;;;;1.40;0.60;;;;;;;;;;5048854;28;20120;-61
2024/02/04 04:53:49;;;;;;;1.27;0.77;;;;;;;;;;5033841;28;20081;-62
2024/02/04 04:56:14;;;;;;;1.45;0.65;;;;;;;;;;5033505;28;20473;-61
2024/02/04 04:58:39;;;;;;;2.22;0.68;;;;;;;;;;5032611;28;20057;-61
2024/02/04 05:01:05;;;;;;;0.65;0.52;;;;;;;;;;5033766;28;20091;-61
2024/02/04 05:03:31;;;;;;;0.73;0.50;;;;;;;;;;5033741;28;20124;-61
2024/02/04 05:05:56;;;;;;;1.45;0.60;;;;;;;;;;5032443;28;20112;-61
2024/02/04 05:08:22;;;;;;;2.05;0.70;;;;;;;;;;5033643;28;20039;-62
2024/02/04 05:10:47;;;;;;;1.05;0.63;;;;;;;;;;5033365;28;20036;-61
2024/02/04 05:13:12;;;;;;;1.42;0.80;;;;;;;;;;5033559;28;20037;-61
2024/02/04 05:15:38;;;;;;;1.27;0.80;;;;;;;;;;5033292;28;20029;-61
2024/02/04 05:18:04;;;;;;;1.83;0.70;;;;;;;;;;5049255;28;20034;-61
2024/02/04 05:20:30;;;;;;;0.60;0.60;;;;;;;;;;5033552;28;20045;-61
2024/02/04 05:22:57;;;;;;;2.25;0.85;;;;;;;;;;5033292;28;20104;-62
2024/02/04 05:25:22;;;;;;;1.75;0.77;;;;;;;;;;5033254;28;20038;-61
2024/02/04 05:27:47;;;;;;;0.70;0.70;;;;;;;;;;5033249;28;20385;-61
2024/02/04 05:30:15;;;;;;;1.00;0.60;;;;;;;;;;5033227;28;20417;-61
2024/02/04 05:32:40;;;;;;;1.08;0.80;;;;;;;;;;5033398;28;20041;-61
2024/02/04 05:35:07;;;;;;;1.08;0.77;;;;;;;;;;5033728;28;20025;-61
2024/02/04 05:37:33;;;;;;;0.73;0.68;;;;;;;;;;5033127;28;20029;-61
2024/02/04 05:39:58;;;;;;;0.40;0.40;;;;;;;;;;5033119;28;20112;-61
2024/02/04 05:42:24;;;;;;;0.80;0.60;;;;;;;;;;5033332;28;20083;-61
2024/02/04 05:44:49;;;;;;;1.50;0.73;;;;;;;;;;5033072;28;20381;-61
2024/02/04 05:47:15;;;;;;;1.63;0.70;;;;;;;;;;5033022;28;20033;-62
2024/02/04 05:49:40;;;;;;;0.57;0.50;;;;;;;;;;5033557;28;20037;-61
2024/02/04 05:52:06;;;;;;;1.17;0.70;;;;;;;;;;5050048;28;20127;-60
2024/02/04 05:54:31;;;;;;;1.00;0.85;;;;;;;;;;5036556;28;20045;-61
2024/02/04 05:56:57;;;;;;;0.75;0.55;;;;;;;;;;5035277;28;20028;-61
2024/02/04 05:59:22;;;;;;;1.65;0.65;;;;;;;;;;5036527;28;20385;-61
2024/02/04 06:01:47;;;;;;;0.70;0.70;;;;;;;;;;5036477;28;20044;-61
2024/02/04 06:04:13;;;;;;;2.17;0.70;;;;;;;;;;5036445;28;20021;-61
2024/02/04 06:06:38;;;;;;;0.63;0.57;;;;;;;;;;5036390;28;20394;-61
2024/02/04 06:09:03;;;;;;;1.15;0.60;;;;;;;;;;5036335;28;20022;-61
2024/02/04 06:11:29;;;;;;;0.73;0.57;;;;;;;;;;5036344;28;20454;-61
2024/02/04 06:13:54;;;;;;;2.00;0.60;;;;;;;;;;5036727;28;20029;-61
2024/02/04 06:16:21;;;;;;;0.60;0.60;;;;;;;;;;5036205;28;20021;-61
2024/02/04 06:18:46;;;;;;;1.08;0.50;;;;;;;;;;5036149;28;20025;-61
2024/02/04 06:21:12;;;;;;;0.82;0.70;;;;;;;;;;5034928;28;20461;-61
2024/02/04 06:23:38;;;;;;;0.52;0.47;;;;;;;;;;5036103;28;20037;-61
2024/02/04 06:26:03;;;;;;;1.48;0.70;;;;;;;;;;5036245;28;20108;-61
2024/02/04 06:28:29;;;;;;;1.02;0.55;;;;;;;;;;5036239;28;20108;-60
2024/02/04 06:30:54;;;;;;;1.63;0.70;;;;;;;;;;5035952;28;20436;-61
2024/02/04 06:33:19;;;;;;;0.63;0.50;;;;;;;;;;5035793;28;20416;-61
2024/02/04 06:35:45;;;;;;;1.13;0.75;;;;;;;;;;5035829;28;20032;-61
2024/02/04 06:38:11;;;;;;;1.80;0.75;;;;;;;;;;5036093;28;20041;-62
2024/02/04 06:40:36;;;;;;;0.93;0.70;;;;;;;;;;5036289;28;20014;-62
2024/02/04 06:43:02;;;;;;;0.88;0.65;;;;;;;;;;5036258;28;20034;-61
2024/02/04 06:45:27;;;;;;;0.80;0.75;;;;;;;;;;5035676;28;20113;-62
2024/02/04 06:47:52;;;;;;;1.45;0.65;;;;;;;;;;5036164;28;20037;-61
2024/02/04 06:50:18;;;;;;;0.88;0.52;;;;;;;;;;5036151;28;20034;-62
2024/02/04 06:52:43;;;;;;;0.98;0.63;;;;;;;;;;5035671;28;20035;-61
2024/02/04 06:55:09;;;;;;;0.93;0.50;;;;;;;;;;5035588;28;20401;-61
2024/02/04 06:57:34;;;;;;;0.40;0.40;;;;;;;;;;5035749;28;20032;-61
2024/02/04 06:59:59;;;;;;;0.82;0.75;;;;;;;;;;5035568;28;20025;-61
2024/02/04 07:02:25;;;;;;;0.60;0.57;;;;;;;;;;5035051;28;20030;-62
2024/02/04 07:04:50;;;;;;;1.65;0.52;;;;;;;;;;5035293;28;20079;-61
2024/02/04 07:07:16;;;;;;;0.63;0.50;;;;;;;;;;5035285;28;20037;-61
2024/02/04 07:09:41;;;;;;;1.75;0.60;;;;;;;;;;5035499;28;20045;-61
2024/02/04 07:12:06;;;;;;;0.93;0.63;;;;;;;;;;5035679;28;20025;-61
2024/02/04 07:14:31;;;;;;;1.00;0.57;;;;;;;;;;5035118;28;20026;-61
2024/02/04 07:16:57;;;;;;;0.88;0.50;;;;;;;;;;5035122;28;20491;-61
2024/02/04 07:19:23;;;;;;;0.73;0.73;;;;;;;;;;5034947;28;20469;-61
2024/02/04 07:21:48;;;;;;;1.75;0.70;;;;;;;;;;5035296;28;20030;-61
2024/02/04 07:24:14;;;;;;;1.17;0.75;;;;;;;;;;5035465;28;20029;-61
2024/02/04 07:26:39;;;;;;;1.85;1.10;;;;;;;;;;5035451;28;20034;-61
2024/02/04 07:29:05;;;;;;;1.85;0.80;;;;;;;;;;5035113;28;20072;-61
2024/02/04 07:31:30;;;;;;;2.05;0.88;;;;;;;;;;5033813;28;20030;-61
2024/02/04 07:33:55;;;;;;;1.20;0.45;;;;;;;;;;5034952;28;20028;-61
2024/02/04 07:36:21;;;;;;;0.77;0.45;;;;;;;;;;5035007;28;20041;-61
2024/02/04 07:38:46;;;;;;;1.20;0.60;;;;;;;;;;5035173;28;20022;-61
2024/02/04 07:41:15;;;;;;;0.65;0.55;;;;;;;;;;5034634;28;20064;-61
2024/02/04 07:43:40;;;;;;;1.05;0.75;;;;;;;;;;5034568;28;20032;-62
2024/02/04 07:46:08;;;;;;;0.93;0.68;;;;;;;;;;5035042;28;20030;-61
2024/02/04 07:48:34;;;;;;;2.65;1.23;;;;;;;;;;5034478;28;20033;-61
2024/02/04 07:50:59;;;;;;;3.35;0.98;;;;;;;;;;5034673;28;20033;-61
2024/02/04 07:53:25;;;;;;;1.95;0.93;;;;;;;;;;5034141;28;20401;-61
2024/02/04 07:55:51;;;;;;;1.73;0.82;;;;;;;;;;5034605;28;20575;-61
2024/02/04 07:58:16;;;;;;;1.65;0.82;;;;;;;;;;5034550;28;20380;-61
2024/02/04 08:00:41;;;;;;;3.05;1.20;;;;;;;;;;5033376;28;20033;-61
2024/02/04 08:03:07;;;;;;;2.45;0.80;;;;;;;;;;5034523;28;20041;-61
2024/02/04 08:05:35;;;;;;;3.00;1.33;;;;;;;;;;5034135;28;20029;-61
2024/02/04 08:08:00;;;;;;;1.65;1.10;;;;;;;;;;5034415;28;20460;-62
2024/02/04 08:10:26;;;;;;;2.28;0.93;;;;;;;;;;5034075;28;20109;-61
2024/02/04 08:12:53;;;;;;;2.35;1.33;;;;;;;;;;5033991;28;20370;-62
2024/02/04 08:15:18;;;;;;;1.35;0.80;;;;;;;;;;5033396;28;20027;-61
2024/02/04 08:17:43;;;;;;;1.15;0.85;;;;;;;;;;5033954;28;20475;-61
2024/02/04 08:20:09;;;;;;;2.53;1.05;;;;;;;;;;5034169;28;20025;-62
2024/02/04 08:22:34;;;;;;;1.60;1.10;;;;;;;;;;5034115;28;20037;-61
2024/02/04 08:25:01;;;;;;;2.95;1.17;;;;;;;;;;5034434;28;20033;-61
2024/02/04 08:27:26;;;;;;;3.22;1.35;;;;;;;;;;5034389;28;20033;-61
2024/02/04 08:29:52;;;;;;;1.38;1.08;;;;;;;;;;5033749;28;20032;-62
2024/02/04 08:32:17;;;;;;;1.27;0.82;;;;;;;;;;5049032;28;20044;-61
2024/02/04 08:34:43;;;;;;;0.70;0.70;;;;;;;;;;5033950;28;20025;-62
2024/02/04 08:37:08;;;;;;;1.85;0.82;;;;;;;;;;5033683;28;20025;-61
2024/02/04 08:39:34;;;;;;;2.05;1.00;;;;;;;;;;5032384;28;20071;-61
2024/02/04 08:41:59;;;;;;;0.75;0.68;;;;;;;;;;5033637;28;20032;-61
2024/02/04 08:44:26;;;;;;;1.75;0.90;;;;;;;;;;5034452;28;20428;-61
2024/02/04 08:46:51;;;;;;;1.20;1.08;;;;;;;;;;5033564;28;20028;-61
2024/02/04 08:49:16;;;;;;;1.98;0.70;;;;;;;;;;5034143;28;20087;-61
2024/02/04 08:51:42;;;;;;;1.25;0.93;;;;;;;;;;5033754;28;20026;-61
2024/02/04 08:54:08;;;;;;;0.30;0.30;;;;;;;;;;5032414;28;20041;-60
2024/02/04 08:56:33;;;;;;;2.28;0.80;;;;;;;;;;5033537;28;20096;-61
2024/02/04 08:58:59;;;;;;;0.75;0.63;;;;;;;;;;5034082;28;20124;-61
2024/02/04 09:01:25;;;;;;;5.53;1.10;;;;;;;;;;5048834;28;20052;-61
2024/02/04 09:03:50;;;;;;;3.55;1.10;;;;;;;;;;5033719;28;20037;-61
2024/02/04 09:06:16;;;;;;;1.80;0.90;;;;;;;;;;5033465;28;20088;-61
2024/02/04 09:08:41;;;;;;;2.10;1.02;;;;;;;;;;5033407;28;20469;-61
2024/02/04 09:11:07;;;;;;;2.70;0.85;;;;;;;;;;5032775;28;20033;-61
2024/02/04 09:13:32;;;;;;;2.20;1.08;;;;;;;;;;5033855;28;20083;-61
2024/02/04 09:15:58;;;;;;;1.60;0.98;;;;;;;;;;5033640;28;20061;-61
2024/02/04 09:18:23;;;;;;;2.47;1.13;;;;;;;;;;5033274;28;20033;-61
2024/02/04 09:20:48;;;;;;;1.85;1.20;;;;;;;;;;5033165;28;20485;-61
2024/02/04 09:23:14;;;;;;;2.47;1.30;;;;;;;;;;5033269;28;20029;-60
2024/02/04 09:25:39;;;;;;;1.23;0.95;;;;;;;;;;5034734;28;20041;-61
2024/02/04 09:28:05;;;;;;;1.65;1.23;;;;;;;;;;5037430;28;20033;-61
2024/02/04 09:30:30;;;;;;;1.00;0.68;;;;;;;;;;5037073;28;20041;-61
2024/02/04 09:32:56;;;;;;;1.33;0.85;;;;;;;;;;5036979;28;20087;-61
2024/02/04 09:35:21;;;;;;;2.53;0.98;;;;;;;;;;5036981;28;20084;-61
2024/02/04 09:37:48;;;;;;;1.45;0.80;;;;;;;;;;5037250;28;20033;-61
2024/02/04 09:40:13;;;;;;;2.05;1.00;;;;;;;;;;5037526;28;20108;-60
2024/02/04 09:42:39;;;;;;;1.13;0.60;;;;;;;;;;5019139;28;20104;-61
2024/02/04 09:45:05;;;;;;;2.03;0.93;;;;;;;;;;5036813;28;20033;-60
2024/02/04 09:47:31;;;;;;;2.13;1.08;;;;;;;;;;5037305;28;20408;-61
2024/02/04 09:49:57;;;;;;;0.98;0.43;;;;;;;;;;5036983;28;20087;-60
2024/02/04 09:52:30;;;;;;;1.77;0.95;;;;;;;;;;5036855;28;20037;-61
2024/02/04 09:54:58;;;;;;;1.20;0.95;;;;;;;;;;5037004;28;20049;-51
2024/02/04 09:57:24;;;;;;;1.73;0.77;;;;;;;;;;5036590;28;20083;-60
2024/02/04 09:59:49;;;;;;;1.88;1.00;;;;;;;;;;5036769;28;20100;-51
2024/02/04 10:02:15;;;;;;;1.35;0.90;;;;;;;;;;5070335;23;20050;-54
2024/02/04 10:04:40;;;;;;;2.25;0.93;;;;;;;;;;5060877;23;20073;-54
2024/02/04 10:07:06;;;;;;;2.55;0.77;;;;;;;;;;5051034;23;20382;-63
2024/02/04 10:09:32;;;;;;;1.05;0.50;;;;;;;;;;5036347;28;20018;-63
2024/02/04 10:11:57;;;;;;;2.08;0.68;;;;;;;;;;5036095;28;20385;-64
2024/02/04 10:14:23;;;;;;;1.60;0.73;;;;;;;;;;5036562;28;20041;-63
2024/02/04 10:16:49;;;;;;;1.60;0.80;;;;;;;;;;5036238;28;20041;-63
2024/02/04 10:19:14;;;;;;;2.35;1.02;;;;;;;;;;5036187;28;20477;-64
2024/02/04 10:21:39;;;;;;;1.02;0.90;;;;;;;;;;5036430;28;20109;-63
2024/02/04 10:24:06;;;;;;;1.35;1.05;;;;;;;;;;5036641;28;20033;-64
2024/02/04 10:26:33;;;;;;;1.20;0.85;;;;;;;;;;5036616;28;20040;-54
2024/02/04 10:28:59;;;;;;;0.80;0.68;;;;;;;;;;5036519;28;20087;-54
2024/02/04 10:31:25;;;;;;;1.27;0.93;;;;;;;;;;5051321;28;20033;-54
2024/02/04 10:33:51;;;;;;;2.60;0.90;;;;;;;;;;5035855;28;20032;-53
2024/02/04 10:36:17;;;;;;;1.10;0.95;;;;;;;;;;5036393;28;20026;-54
2024/02/04 10:38:42;;;;;;;1.10;0.82;;;;;;;;;;5035098;28;20036;-54
2024/02/04 10:41:12;;;;;;;1.60;1.10;;;;;;;;;;5035061;28;20025;-54
2024/02/04 10:43:38;;;;;;;1.73;0.82;;;;;;;;;;5035760;28;20041;-54
2024/02/04 10:46:09;;;;;;;2.30;1.10;;;;;;;;;;5051086;28;20184;-54
2024/02/04 10:48:42;;;;;;;2.45;1.00;;;;;;;;;;5035920;28;20109;-54
2024/02/04 10:51:18;;;;;;;2.05;0.80;;;;;;;;;;5035881;28;20091;-54
2024/02/04 10:53:44;;;;;;;3.35;1.15;;;;;;;;;;5035749;28;20124;-54
2024/02/04 10:56:13;;;;;;;1.20;0.90;;;;;;;;;;5035810;28;20091;-63
2024/02/04 10:58:39;;;;;;;3.63;0.95;;;;;;;;;;5035505;28;20029;-63
2024/02/04 11:01:06;;;;;;;0.80;0.63;;;;;;;;;;5035416;28;20380;-64
2024/02/04 11:03:38;;;;;;;1.00;0.68;;;;;;;;;;5035376;28;20040;-63
2024/02/04 11:06:04;;;;;;;1.45;1.20;;;;;;;;;;5035617;28;20060;-63
2024/02/04 11:08:29;;;;;;;1.83;0.93;;;;;;;;;;5033943;28;20034;-64
2024/02/04 11:10:55;;;;;;;2.33;1.30;;;;;;;;;;5034019;28;20358;-63
2024/02/04 11:13:22;;;;;;;2.25;1.20;;;;;;;;;;5035360;28;20021;-63
2024/02/04 11:15:47;;;;;;;2.88;1.15;;;;;;;;;;5033960;28;20034;-63
2024/02/04 11:18:25;;;;;;;2.40;1.05;;;;;;;;;;5035367;28;20492;-63
2024/02/04 11:20:53;;;;;;;1.77;1.17;;;;;;;;;;5035550;28;20034;-63
2024/02/04 11:23:37;;;;;;;1.35;1.08;;;;;;;;;;5035250;28;20038;-63
2024/02/04 11:26:04;;;;;;;3.20;1.38;;;;;;;;;;5035486;28;20033;-63
2024/02/04 11:28:30;;;;;;;2.33;1.45;;;;;;;;;;5034914;28;20105;-63
2024/02/04 11:30:55;;;;;;;1.38;1.10;;;;;;;;;;5035103;28;20431;-63
2024/02/04 11:33:21;;;;;;;1.42;1.05;;;;;;;;;;5034964;28;20033;-63
2024/02/04 11:35:46;;;;;;;2.50;1.20;;;;;;;;;;5033582;28;20380;-63
2024/02/04 11:38:13;;;;;;;1.67;1.20;;;;;;;;;;5034943;28;20026;-64
2024/02/04 11:40:39;;;;;;;1.67;1.10;;;;;;;;;;5034697;28;20022;-64
2024/02/04 11:43:10;;;;;;;1.83;1.25;;;;;;;;;;5034579;28;20524;-64
2024/02/04 11:45:39;;;;;;;2.78;1.38;;;;;;;;;;5034517;28;20029;-63
2024/02/04 11:48:06;;;;;;;3.15;1.67;;;;;;;;;;5033534;28;20073;-63
2024/02/04 11:50:35;;;;;;;3.45;1.40;;;;;;;;;;5033880;28;20038;-63
2024/02/04 11:53:09;;;;;;;3.95;2.17;;;;;;;;;;5024408;28;20485;-63
2024/02/04 11:55:38;;;;;;;4.20;2.15;;;;;;;;;;5034614;28;20029;-64
2024/02/04 11:58:07;;;;;;;2.13;1.30;;;;;;;;;;5034888;28;20061;-54
2024/02/04 12:00:33;;;;;;;3.42;1.40;;;;;;;;;;5034620;28;20358;-54
2024/02/04 12:03:02;;;;;;;2.55;1.42;;;;;;;;;;5034253;28;20504;-54
2024/02/04 12:05:27;;;;;;;2.72;1.58;;;;;;;;;;5034499;28;20542;-54
2024/02/04 12:07:53;;;;;;;4.63;1.50;;;;;;;;;;5034098;28;20127;-54
2024/02/04 12:10:18;;;;;;;3.13;1.58;;;;;;;;;;5034346;28;20167;-54
2024/02/04 12:12:43;;;;;;;3.75;1.77;;;;;;;;;;5033993;28;20045;-54
2024/02/04 12:15:09;;;;;;;2.17;1.60;;;;;;;;;;5034347;28;20116;-54
2024/02/04 12:17:34;;;;;;;2.47;1.52;;;;;;;;;;5034011;28;20029;-54
2024/02/04 12:20:00;;;;;;;1.98;1.38;;;;;;;;;;5034490;28;20064;-54
2024/02/04 12:22:25;;;;;;;1.70;1.15;;;;;;;;;;5033924;28;20358;-54
2024/02/04 12:24:51;;;;;;;2.70;1.40;;;;;;;;;;5034194;28;20037;-54
2024/02/04 12:27:17;;;;;;;2.88;1.15;;;;;;;;;;5049254;28;20546;-54
2024/02/04 12:29:42;;;;;;;1.00;0.82;;;;;;;;;;5034388;28;20061;-63
2024/02/04 12:32:08;;;;;;;2.35;1.40;;;;;;;;;;5033684;28;20088;-64
2024/02/04 12:34:34;;;;;;;2.58;1.17;;;;;;;;;;5034843;28;20034;-63
2024/02/04 12:37:02;;;;;;;2.58;1.48;;;;;;;;;;5033719;28;20022;-63
2024/02/04 12:39:28;;;;;;;1.60;1.13;;;;;;;;;;5033981;28;20041;-63
2024/02/04 12:41:54;;;;;;;2.47;1.27;;;;;;;;;;5034203;28;20100;-63
2024/02/04 12:44:19;;;;;;;2.60;1.20;;;;;;;;;;5033940;28;20091;-63
2024/02/04 12:46:45;;;;;;;2.13;1.40;;;;;;;;;;5033931;28;20037;-64
2024/02/04 12:49:11;;;;;;;2.40;1.67;;;;;;;;;;5034138;28;20029;-63
2024/02/04 12:51:39;;;;;;;2.25;1.58;;;;;;;;;;5034131;28;20037;-64
2024/02/04 12:54:09;;;;;;;2.40;1.67;;;;;;;;;;5032154;28;20445;-63
2024/02/04 12:56:45;;;;;;;4.60;1.90;;;;;;;;;;5033789;28;20021;-63
2024/02/04 12:59:10;;;;;;;1.98;1.45;;;;;;;;;;5034069;28;20040;-64
2024/02/04 13:01:39;;;;;;;5.05;1.42;;;;;;;;;;5036587;28;20029;-63
2024/02/04 13:04:05;;;;;;;1.40;1.30;;;;;;;;;;5052970;28;20087;-63
2024/02/04 13:06:30;;;;;;;2.50;1.55;;;;;;;;;;5037921;28;20033;-64
2024/02/04 13:08:58;;;;;;;1.60;1.27;;;;;;;;;;5037992;28;20045;-63
2024/02/04 13:11:24;;;;;;;2.08;1.50;;;;;;;;;;5037768;28;20108;-64
2024/02/04 13:13:50;;;;;;;1.90;1.17;;;;;;;;;;5037612;28;20545;-63
2024/02/04 13:16:16;;;;;;;1.30;1.17;;;;;;;;;;5052716;28;20021;-64
2024/02/04 13:18:41;;;;;;;2.20;1.33;;;;;;;;;;5037361;28;20034;-63
2024/02/04 13:21:07;;;;;;;2.10;1.63;;;;;;;;;;5037292;28;20488;-63
2024/02/04 13:23:34;;;;;;;5.18;3.50;;;;;;;;;;5037249;28;20572;-64
2024/02/04 13:26:00;;;;;;;2.70;2.50;;;;;;;;;;5037742;28;20071;-63
2024/02/04 13:28:25;;;;;;;3.17;2.25;;;;;;;;;;5037404;28;20065;-63
2024/02/04 13:30:50;;;;;;;3.08;2.15;;;;;;;;;;5037092;28;20029;-54
2024/02/04 13:33:16;;;;;;;3.20;2.28;;;;;;;;;;5037544;28;20029;-54
2024/02/04 13:35:42;;;;;;;3.80;2.70;;;;;;;;;;5036046;28;20099;-54
2024/02/04 13:38:08;;;;;;;3.25;2.50;;;;;;;;;;5037504;28;20030;-54
2024/02/04 13:40:34;;;;;;;4.75;3.10;;;;;;;;;;5036923;28;20076;-54
2024/02/04 13:42:59;;;;;;;7.05;4.00;;;;;;;;;;5037135;28;20037;-54
2024/02/04 13:45:25;;;;;;;3.80;3.45;;;;;;;;;;5052140;28;20021;-54
2024/02/04 13:47:50;;;;;;;3.70;3.33;;;;;;;;;;5036784;28;20128;-54
2024/02/04 13:50:16;;;;;;;6.47;4.45;;;;;;;;;;5036987;28;20068;-54
2024/02/04 13:52:41;;;;;;;9.48;5.88;;;;;;;;;;5036594;28;20075;-54
2024/02/04 13:55:07;;;;;;;14.50;7.75;;;;;;;;;;5036617;28;20030;-54
2024/02/04 13:57:33;;;;;;;17.00;10.00;;;;;;;;;;5036645;28;20029;-54
2024/02/04 13:59:58;;;;;;;7.85;5.03;;;;;;;;;;5036543;28;20108;-54
2024/02/04 14:02:26;;;;;;;9.27;5.43;;;;;;;;;;5036784;28;20036;-54
2024/02/04 14:04:52;;;;;;;9.98;5.00;;;;;;;;;;5036496;28;20030;-54
2024/02/04 14:07:18;;;;;;;8.35;4.32;;;;;;;;;;5036418;28;20073;-54
2024/02/04 14:09:43;;;;;;;6.68;3.58;;;;;;;;;;5036390;28;20073;-54
2024/02/04 14:12:08;;;;;;;6.00;4.07;;;;;;;;;;5035143;28;20037;-54
2024/02/04 14:14:34;;;;;;;6.10;3.55;;;;;;;;;;5036227;28;20465;-54
2024/02/04 14:16:59;;;;;;;6.35;3.65;;;;;;;;;;5036537;28;20096;-54
2024/02/04 14:19:25;;;;;;;3.70;3.35;;;;;;;;;;5036721;28;20024;-54
2024/02/04 14:21:50;;;;;;;3.47;3.13;;;;;;;;;;5036473;28;20116;-54
2024/02/04 14:24:15;;;;;;;5.40;3.13;;;;;;;;;;5036619;28;20048;-54
2024/02/04 14:26:41;;;;;;;4.07;3.13;;;;;;;;;;5036373;28;20057;-54
2024/02/04 14:29:06;;;;;;;5.55;3.60;;;;;;;;;;5036049;28;20080;-54
2024/02/04 14:31:32;;;;;;;3.92;2.85;;;;;;;;;;5036024;28;20048;-54
2024/02/04 14:33:58;;;;;;;4.47;3.33;;;;;;;;;;5035884;28;20026;-63
2024/02/04 14:36:24;;;;;;;3.63;2.67;;;;;;;;;;5035927;28;20025;-63